ノーフォーク島 の空港の天気 - METARとTAF

ノーフォーク島空港 ( YSNF / NLK ) - ノーフォーク島 ノーフォーク島
飛行場実況気象(Metar)
観測時間09/19 08:30 NFT (09/18 21:30 UTC)
風向・風速東北東 2m/s
視程10km以上
天気現象
全天を覆う雲 雲底高度 1520m
気温17℃
湿度72%
気圧1025hPa
METARYSNF 182130Z AUTO 07003KT 9999 // OVC050 17/12 Q1025 RF00.0/000.0
過去の天気等 Google飛行場航空写真 Wunderground天気予報

過去48時間のMETAR

飛行場予報(TAF)
発表時間: 9/19 04:01 NFT (9/18 17:01 UTC)
予報対象時間: 19日5時 NFT ~ 20日5時 NFT
風向・風速東 5m/s
視程10km以上
全天の4割程度の雲 雲底高度 910m
全天の8割程度の雲 雲底高度 1220m
19日10時 NFT から
風向・風速北 3m/s
視程10km以上
天気現象弱いしゅう雨
全天の8割程度の雲 雲底高度 760m
19日14時 NFT から
風向・風速西南西 5m/s
視程10km以上
天気現象弱いしゅう雨
全天の8割程度の雲 雲底高度 760m
TAF YSNF 181701Z 1818/1918 09010KT 9999 SCT030 BKN040
FM182300 35006KT 9999 -SHRA BKN025
FM190300 25010KT 9999 -SHRA BKN025